Christopher Miller

Chefscout - Coventry City
13 Jan 2028
Donnerstag
Verarbeitung

Persönlichkeit

Anpassungsfähigkeit (11) Ehrgeiz (8) Kontroverse (9) Loyalität (13) Druck (12) Professionalität (16) Fairness (11) Temperament (10)

Profil

Trainerstil Demokratisch
Lizenz Kontinentale B
Entschlossenheit 13
Menschenführung 8
Motivation 11
Disziplin 9
Arbeitszufriedenheit
100%
Ermüdung
0%
Rolle Chefscout
Gehalt 18.3K p/W
Vertrag 14.03.2029

Leistung

Verhalten Gut
Trainingseffektivität
39%
Spielerentwicklung
30%
Verletzungsprävention
60%
Taktische Umsetzung
30%

Letzte Ereignisse

Spieler begutachtet jetzt
Nahm an einer Scouting-Besprechung teil jetzt
Empfahl ein Transferziel jetzt
Legte dem Vorstand ein Dossier vor 7T her
Legte dem Vorstand ein Dossier vor 7T her
Legte dem Vorstand ein Dossier vor 7T her
Legte dem Vorstand ein Dossier vor 7T her
Legte dem Vorstand ein Dossier vor 7T her

Aktuell beobachtet

198
Spieler Verein Status Fähigkeit Vertrauen Beobachtet Zuletzt beobachtet Letzte Stimme
Jofre Torrents Ajax Aktiv 134 / 130 40% 2 10.01.2028 -
Giovanni Leoni Bradford City Aktiv 129 / 143 40% 5 10.01.2028 -
Nicolás Fernández Mercau Independiente Bericht bereit 134 / 134 90% 1 01.01.2028 Beobachten
José Paradela Tigres Verhandlung 137 / 137 66% 1 01.01.2028 -
Nicolas Sport Recife Aktiv 116 / 120 40% 2 31.12.2027 -
Esquerdinha Shrewsbury Town Aktiv 122 / 126 40% 2 31.12.2027 -
Ernie Weaver AFC Wimbledon Aktiv 116 / 122 40% 3 06.12.2027 -
Axel Tape Bayer Leverkusen Aktiv 127 / 136 40% 3 06.12.2027 -
Joel McGregor Swindon Town Aktiv 105 / 104 40% 2 05.12.2027 -
Celías Ingenthron Vélez Aktiv 125 / 114 40% 2 05.12.2027 -
Josh Nichols Tranmere Rovers Aktiv 114 / 125 40% 1 04.12.2027 -
Alejandro Almaraz Nueva Chicago Aktiv 117 / 124 40% 4 30.11.2027 -
Fillip Jenssen Riise Stabaek Aktiv 92 / 100 40% 3 28.11.2027 -
Ronan Kpakio Cardiff City Aktiv 125 / 129 40% 2 28.11.2027 -
Archie Gray Derby County Aktiv 142 / 150 40% 2 27.11.2027 -
Harbor Miller LA Galaxy Aktiv 107 / 115 40% 1 27.11.2027 -
Ayden Heaven Luton Town Aktiv 147 / 152 40% 1 25.11.2027 -
Frankie Westfield Philadelphia Union Aktiv 115 / 118 40% 3 24.11.2027 -
Tiago Parente Benfica Aktiv 106 / 116 40% 2 24.11.2027 -
Bahia Criciuma Aktiv 125 / 113 40% 2 22.11.2027 -
Mauro Carrizo Atlético Tucumán Aktiv 91 / 103 40% 1 21.11.2027 -
Mikkel Hope Haugesund Aktiv 96 / 95 40% 2 18.11.2027 -
Hervin Goyes Deportivo Pasto Aktiv 97 / 119 40% 1 14.11.2027 -
Tobias Moi Bodo/Glimt Aktiv 101 / 105 40% 1 13.11.2027 -
Jovan Milosavljević Kalmar FF Aktiv 90 / 101 40% 1 11.11.2027 -
Julián Bazán Philadelphia Union Aktiv 113 / 110 40% 2 10.11.2027 -
Christos Mouzakitis Hull City Aktiv 144 / 138 40% 2 05.11.2027 -
Sascha Britschgi Padova Aktiv 127 / 123 40% 2 26.07.2027 -
Ethan Williams Peterborough United Aktiv 124 / 128 40% 1 26.07.2027 -
Matías Gómez Granada Aktiv 121 / 130 40% 2 19.07.2027 -
Zane Albarus Cambridge United Aktiv 91 / 98 40% 1 19.07.2027 -
Josh King Chelsea Aktiv 149 / 148 40% 4 06.07.2027 -
Leo Castledine Middlesbrough Aktiv 128 / 138 40% 1 06.07.2027 -
Gopolang Taunyane CR Belouizdad Aktiv 95 / 101 40% 2 29.06.2027 -
Daniel Kelly Oxford United Aktiv 108 / 124 40% 1 21.06.2027 -
Bernardo Lima Porto Aktiv 100 / 112 40% 2 15.06.2027 -
Keagan Tau Ajax Cape Town Aktiv 111 / 110 40% 2 14.06.2027 -
Facundo Torres LOSC Lille Aktiv 134 / 134 67% 1 01.06.2027 Befürworten
Pedro de la Vega FC Dallas Aktiv 133 / 134 66% 1 01.06.2027 Befürworten
Riley Owen Trento Aktiv 93 / 104 40% 2 31.05.2027 -
Lucas Da Cunha Como Aktiv 140 / 150 40% 6 30.05.2027 -
Samuele Angori Pisa Aktiv 130 / 133 40% 1 30.05.2027 -
Tommaso Pobega Bologna Aktiv 150 / 134 40% 1 28.05.2027 -
Michael Kayode Brentford Aktiv 152 / 148 40% 2 27.05.2027 -
Adam Bakoune Ospitaletto Aktiv 96 / 106 40% 1 27.05.2027 -
Florentino Luís Ipswich Town Aktiv 135 / 138 40% 4 25.05.2027 -
Nicolò Rovella Lazio Aktiv 160 / 157 40% 4 25.05.2027 -
Alex Scott Bournemouth Aktiv 160 / 147 40% 1 24.05.2027 -
Noah Sadiki Sunderland Aktiv 151 / 149 40% 3 21.05.2027 -
Oliver Skipp Leicester City Aktiv 143 / 126 40% 1 21.05.2027 -
Welington Southampton Aktiv 129 / 127 40% 5 20.05.2027 -
Adam Wharton Crystal Palace Aktiv 155 / 149 40% 5 18.05.2027 -
Davide Bartesaghi AC Milan Aktiv 138 / 130 40% 2 18.05.2027 -
Leandro Martins Benfica Aktiv 104 / 104 40% 1 18.05.2027 -
Yehor Yarmoliuk Brentford Aktiv 144 / 154 40% 7 17.05.2027 -
Alessandro Buongiorno Sassuolo Aktiv 160 / 161 40% 5 17.05.2027 -
Ousmane Diomande Nottingham Forest Aktiv 155 / 159 40% 4 15.05.2027 -
Nadir Zortea Bologna Aktiv 142 / 132 40% 3 13.05.2027 -
Jan Bürger Gillingham Aktiv 119 / 112 40% 3 13.05.2027 -
Soungoutou Magassa West Ham United Aktiv 126 / 130 40% 3 13.05.2027 -
Kazunari Kita Real Sociedad Aktiv 96 / 105 40% 1 13.05.2027 -
Johan Manzambi Newcastle United Aktiv 146 / 141 40% 2 12.05.2027 -
Percy Jali Free State Stars Aktiv 93 / 95 40% 2 10.05.2027 -
Lewis Miley Chelsea Aktiv 144 / 153 40% 1 10.05.2027 -
Christ Inao Oulaï Fiorentina Aktiv 136 / 144 40% 2 09.05.2027 -
Ryan Sessegnon Fulham Aktiv 148 / 145 40% 6 07.05.2027 -
Calvin Bassey Fulham Aktiv 160 / 146 40% 1 07.05.2027 -
Juan Miranda Bologna Aktiv 134 / 138 40% 1 05.05.2027 -
Raoul Bellanova Atalanta Aktiv 141 / 143 40% 3 04.05.2027 -
Jordan Beyer Burnley Aktiv 134 / 142 40% 2 02.05.2027 -
Trevoh Chalobah Como Aktiv 161 / 152 40% 2 01.05.2027 -
Habib Diarra Sunderland Aktiv 150 / 146 40% 5 29.04.2027 -
Leif Davis Ipswich Town Aktiv 133 / 136 40% 3 25.04.2027 -
Malick Thiaw West Ham United Aktiv 157 / 155 40% 2 23.04.2027 -
Nuno Tavares Lazio Aktiv 146 / 152 40% 2 20.04.2027 -
Nathan Collins Brentford Aktiv 147 / 147 40% 2 17.04.2027 -
Tiago Freitas Benfica Aktiv 106 / 118 40% 1 17.04.2027 -
Ethan Galbraith Swansea City Aktiv 132 / 134 40% 3 15.04.2027 -
Rivaldo Grobler Free State Stars Aktiv 107 / 95 40% 2 15.04.2027 -
Hlompho Lorch Ajax Cape Town Aktiv 111 / 109 40% 1 13.04.2027 -
Gabriel Gudmundsson Leeds United Aktiv 151 / 144 40% 5 11.04.2027 -
André Wolverhampton Aktiv 156 / 143 40% 6 10.04.2027 -
Quinten Timber Crystal Palace Aktiv 149 / 149 40% 6 03.04.2027 -
Cheick Doucouré Crystal Palace Aktiv 136 / 144 40% 1 02.04.2027 -
Adrien Truffert Bournemouth Aktiv 161 / 150 40% 2 01.04.2027 -
Christian Krasnodar Aktiv 137 / 128 40% 3 30.03.2027 -
Shea Charles Southampton Aktiv 131 / 138 40% 5 26.03.2027 -
Juanlu Bournemouth Aktiv 144 / 156 40% 3 24.03.2027 -
Lewis Ferguson Bologna Aktiv 153 / 138 40% 1 22.03.2027 -
Nicolò Bertola Udinese Aktiv 126 / 139 40% 1 18.03.2027 -
Anel Ahmedhodžić Burnley Aktiv 139 / 130 40% 2 17.03.2027 -
Oumar Solet Udinese Aktiv 145 / 151 40% 1 14.03.2027 -
Mamadou Sangaré Brentford Aktiv 143 / 149 40% 1 10.03.2027 -
Ronwen Phiri Platinum Stars Aktiv 108 / 110 40% 1 10.03.2027 -
Aaron Hickey Brentford Aktiv 154 / 142 40% 1 08.03.2027 -
Max Bird Birmingham Aktiv 125 / 131 40% 1 25.02.2027 -
Tariq Lamptey Queens Park Rangers Aktiv 124 / 131 40% 1 22.02.2027 -
Jacob Greaves Ipswich Town Aktiv 140 / 128 40% 1 16.02.2027 -
Ethan Ampadu Leeds United Aktiv 141 / 141 40% 2 13.02.2027 -
Israel Reyes CSKA Moscow Aktiv 136 / 134 40% 1 03.02.2027 -
Dom Ballard Leyton Orient Aktiv 129 / 129 40% 1 20.01.2027 -
Dominic Hyam Wrexham Aktiv 116 / 122 58% 1 11.01.2027 -
El Hadji Malick Diouf Brentford Aktiv 128 / 140 40% 1 11.01.2027 -
Evidence Makgopa Orlando Pirates Aktiv 126 / 108 40% 3 08.01.2027 -
Luis Vázquez Birmingham Aktiv 142 / 126 40% 1 08.01.2027 -
Toni Fruk KV Mechelen Aktiv 132 / 133 89% 1 01.01.2027 Befürworten
Mohammed Yahaya Great Olympics Aktiv 80 / 88 40% 1 31.12.2026 -
Dean Erasmus Platinum Stars Aktiv 100 / 93 40% 1 30.12.2026 -
Kevin Fulham Aktiv 148 / 152 40% 3 28.12.2026 -
Tyler Adams Bournemouth Aktiv 157 / 147 40% 4 27.12.2026 -
Wilson Isidor Sunderland Aktiv 146 / 129 40% 2 27.12.2026 -
Bongani Mothiba SuperSport United Aktiv 85 / 92 40% 1 27.12.2026 -
Othmane Maamma Watford Aktiv 128 / 124 40% 2 22.12.2026 -
Marquinhos Spartak Moscow Aktiv 127 / 131 40% 2 18.12.2026 -
Sayfallah Ltaief Cracovia Aktiv 128 / 117 40% 2 17.12.2026 -
Isaac Essien WAFA Aktiv 99 / 92 40% 2 15.12.2026 -
Giacomo Raspadori Atalanta Aktiv 152 / 145 40% 1 15.12.2026 -
Callum Hudson-Odoi Nottingham Forest Aktiv 159 / 143 40% 1 12.12.2026 -
Amine Adli Bournemouth Aktiv 153 / 136 40% 3 11.12.2026 -
Jason Knight Bristol City Aktiv 119 / 133 40% 1 08.12.2026 -
Ruben van Bommel Ferencvaros Aktiv 118 / 126 40% 1 07.12.2026 -
Derensili Sanches Fernandes Huddersfield Town Aktiv 137 / 119 40% 1 06.12.2026 -
Kasey McAteer Ipswich Town Aktiv 133 / 124 40% 1 04.12.2026 -
Enzo Le Fée Sunderland Aktiv 147 / 144 40% 1 04.12.2026 -
Riqui Puig LA Galaxy Aktiv 129 / 129 40% 1 02.12.2026 -
Facundo Mura Inter Miami CF Aktiv 132 / 133 40% 3 01.12.2026 -
Dango Ouattara Brentford Aktiv 137 / 146 40% 1 01.12.2026 -
Ali Ahmed Norwich City Aktiv 129 / 119 40% 2 28.11.2026 -
Armando Broja Burnley Aktiv 124 / 142 40% 1 26.11.2026 -
Marcelo Allende Mamelodi Sundowns Aktiv 122 / 129 40% 3 20.11.2026 -
Iván Angulo Orlando City Aktiv 113 / 119 40% 1 20.11.2026 -
Yeremy Pino Crystal Palace Aktiv 153 / 147 40% 1 19.11.2026 -
Marcus Edwards Burnley Aktiv 142 / 139 40% 1 19.11.2026 -
Gonzalo Fulham Aktiv 141 / 148 40% 1 18.11.2026 -
Andrea Pinamonti Lazio Aktiv 147 / 140 40% 1 18.11.2026 -
Marezi Portsmouth Aktiv 117 / 122 40% 1 17.11.2026 -
Lukas Engel Real Salt Lake Aktiv 122 / 115 40% 1 13.11.2026 -
Matt O'Riley Brighton Aktiv 147 / 148 40% 1 11.11.2026 -
Georginio Rutter Brighton Aktiv 158 / 148 40% 2 10.11.2026 -
Bénie Traoré New York City Aktiv 117 / 129 40% 1 10.11.2026 -
Tommy Conway Middlesbrough Aktiv 134 / 132 40% 3 07.11.2026 -
Cheikh Sabaly Vancouver Whitecaps Aktiv 131 / 123 40% 1 05.11.2026 -
Wessam Abou Ali Columbus Crew Aktiv 126 / 138 40% 1 04.11.2026 -
Theo Corbeanu Toronto FC Aktiv 108 / 123 40% 2 01.11.2026 -
Agustín Módica Gimnasia y Esgrima Aktiv 121 / 118 40% 1 01.11.2026 -
Kenan Dervišagić Floriana Aktiv 96 / 103 40% 1 31.10.2026 -
Yousef Salech Cardiff City Aktiv 136 / 131 40% 2 30.10.2026 -
Thiago Brentford Aktiv 136 / 144 40% 1 30.10.2026 -
Themba Ngcobo SuperSport United Aktiv 113 / 114 40% 2 26.10.2026 -
Lorent Tolaj Plymouth Argyle Aktiv 117 / 111 40% 1 25.10.2026 -
Robert Mizo Ashanti Gold Aktiv 109 / 98 40% 1 24.10.2026 -
Djordje Mihailović Toronto FC Aktiv 147 / 127 40% 1 23.10.2026 -
Telasco Segovia Inter Miami CF Aktiv 120 / 130 40% 2 22.10.2026 -
Kévin Denkey FC Cincinnati Aktiv 139 / 122 40% 1 19.10.2026 -
Milan Iloski Philadelphia Union Aktiv 115 / 105 40% 1 18.10.2026 -
Rafael Navarro St. Louis CITY SC Aktiv 123 / 128 40% 1 17.10.2026 -
Alexis Cuello San Lorenzo Aktiv 132 / 116 40% 1 15.10.2026 -
Jeong Sang-Bin St. Louis CITY SC Aktiv 111 / 106 40% 1 12.10.2026 -
Mateusz Bogusz Houston Dynamo Aktiv 137 / 122 40% 2 11.10.2026 -
Kevin Kelsy Portland Timbers Aktiv 120 / 124 40% 2 11.10.2026 -
Félix Lemaréchal Club Brugge Aktiv 127 / 135 40% 1 11.10.2026 -
Victor Olatunji Real Salt Lake Aktiv 111 / 117 40% 2 08.10.2026 -
Indiana Vassilev Philadelphia Union Aktiv 132 / 123 40% 1 08.10.2026 -
Lucas Bergvall Tottenham Aktiv 138 / 154 40% 2 07.10.2026 -
Agustín Anello Philadelphia Union Aktiv 121 / 134 40% 3 07.10.2026 -
James Sands New York City Aktiv 131 / 126 40% 1 07.10.2026 -
Rodrigo Gomes Wolverhampton Aktiv 143 / 144 40% 1 05.10.2026 -
Brandon Vázquez Austin FC Aktiv 127 / 110 40% 1 03.10.2026 -
Ibrahim Aliyu Houston Dynamo Aktiv 111 / 109 40% 1 03.10.2026 -
Leonardo Campana New England Revolution Aktiv 124 / 130 40% 1 02.10.2026 -
Samuel Ssenyonjo AFC Leopards Aktiv 72 / 89 40% 1 01.10.2026 -
Jesus Ferreira Seattle Sounders Aktiv 117 / 123 40% 3 29.09.2026 -
Bryan Ramírez FC Cincinnati Aktiv 139 / 129 40% 1 28.09.2026 -
Antony Portland Timbers Aktiv 141 / 123 40% 1 28.09.2026 -
Duncan McGuire Houston Dynamo Aktiv 131 / 125 40% 1 26.09.2026 -
Alexander Aravena Portland Timbers Aktiv 111 / 129 40% 2 24.09.2026 -
Antonio Galeano Remo Stars Aktiv 132 / 118 40% 1 24.09.2026 -
Tadeo Allende Inter Miami CF Aktiv 116 / 123 40% 1 24.09.2026 -
Martín Ojeda Orlando City Aktiv 122 / 132 40% 1 23.09.2026 -
Griffin Yow New England Revolution Aktiv 108 / 120 40% 1 22.09.2026 -
Joaquín Pereyra Minnesota United FC Aktiv 137 / 120 40% 1 22.09.2026 -
Ousséni Bouda San Jose Earthquakes Aktiv 104 / 111 40% 1 19.09.2026 -
Alonso Martínez New York City Aktiv 107 / 131 40% 1 18.09.2026 -
Diego Lainez Tigres Aktiv 135 / 131 40% 1 13.09.2026 -
Joseph Atule Barau Aktiv 88 / 95 40% 1 13.09.2026 -
Tomás Chancalay Minnesota United FC Aktiv 135 / 115 40% 1 10.09.2026 -
Ismail Sarki Niger Tornadoes Aktiv 103 / 92 40% 1 08.09.2026 -
Elliot Anderson Manchester City Aktiv 144 / 159 40% 1 08.09.2026 -
Alhassan Yusuf New England Revolution Aktiv 109 / 125 40% 1 06.09.2026 -
David Da Costa Portland Timbers Aktiv 128 / 141 40% 1 06.09.2026 -
Marco Pašalić Orlando City Aktiv 140 / 121 40% 2 05.09.2026 -
Dejan Joveljić Seattle Sounders Aktiv 140 / 132 40% 1 02.09.2026 -
Diego Luna Real Salt Lake Aktiv 118 / 120 40% 1 02.09.2026 -
Elías Báez Atlanta United FC Aktiv 120 / 126 40% 2 31.08.2026 -
Leny Yoro Manchester United Aktiv 148 / 151 40% 1 31.08.2026 -
Jacob Bartlett Sporting Kansas City Aktiv 108 / 109 40% 1 30.08.2026 -
Morrison Agyemang Charlotte Football Club Aktiv 96 / 119 40% 1 25.08.2026 -
Trai Hume Sunderland Aktiv 123 / 137 58% 1 17.08.2026 -